sensor_id;sensor_type;location;lat;lon;timestamp;pressure;altitude;pressure_sealevel;temperature;humidity
78444;BME280;67739;52.986;8.894;2023-04-19T01:04:48;103129.63;;;5.04;63.74
78444;BME280;67739;52.986;8.894;2023-04-19T01:07:26;103128.56;;;4.90;63.86
78444;BME280;67739;52.986;8.894;2023-04-19T01:10:11;103140.13;;;4.95;64.13
78444;BME280;67739;52.986;8.894;2023-04-19T01:23:10;103109.75;;;4.75;64.50
78444;BME280;67739;52.986;8.894;2023-04-19T01:25:56;103132.00;;;4.83;64.47
78444;BME280;67739;52.986;8.894;2023-04-19T01:28:56;103137.28;;;4.81;64.83
78444;BME280;67739;52.986;8.894;2023-04-19T01:31:28;103124.84;;;4.79;64.94
78444;BME280;67739;52.986;8.894;2023-04-19T01:33:56;103118.56;;;4.72;65.53
78444;BME280;67739;52.986;8.894;2023-04-19T01:36:24;103119.44;;;4.71;65.42
78444;BME280;67739;52.986;8.894;2023-04-19T01:38:58;103119.47;;;4.73;65.69
78444;BME280;67739;52.986;8.894;2023-04-19T01:41:26;103120.38;;;4.75;66.46
78444;BME280;67739;52.986;8.894;2023-04-19T01:43:57;103121.25;;;4.74;66.91
78444;BME280;67739;52.986;8.894;2023-04-19T01:46:25;103123.88;;;4.72;67.37
78444;BME280;67739;52.986;8.894;2023-04-19T01:52:25;103109.59;;;4.66;68.57
78444;BME280;67739;52.986;8.894;2023-04-19T01:54:56;103109.56;;;4.62;69.08
78444;BME280;67739;52.986;8.894;2023-04-19T02:03:07;103120.00;;;4.49;70.18
78444;BME280;67739;52.986;8.894;2023-04-19T02:05:51;103118.28;;;4.51;70.29
78444;BME280;67739;52.986;8.894;2023-04-19T02:08:49;103108.41;;;4.42;70.46
78444;BME280;67739;52.986;8.894;2023-04-19T02:14:51;103107.41;;;4.34;71.02
78444;BME280;67739;52.986;8.894;2023-04-19T02:17:35;103113.56;;;4.30;71.07
78444;BME280;67739;52.986;8.894;2023-04-19T02:40:21;103113.72;;;3.85;71.60
78444;BME280;67739;52.986;8.894;2023-04-19T02:42:47;103122.63;;;3.87;71.99
78444;BME280;67739;52.986;8.894;2023-04-19T02:45:13;103125.28;;;3.90;72.25
78444;BME280;67739;52.986;8.894;2023-04-19T02:47:41;103112.81;;;3.83;72.27
78444;BME280;67739;52.986;8.894;2023-04-19T02:50:24;103110.00;;;3.75;72.27
78444;BME280;67739;52.986;8.894;2023-04-19T02:53:02;103117.94;;;3.72;72.05
78444;BME280;67739;52.986;8.894;2023-04-19T02:55:47;103116.19;;;3.73;72.10
78444;BME280;67739;52.986;8.894;2023-04-19T02:58:44;103132.16;;;3.74;72.40
78444;BME280;67739;52.986;8.894;2023-04-19T03:01:13;103112.50;;;3.66;72.72
78444;BME280;67739;52.986;8.894;2023-04-19T03:03:46;103122.16;;;3.61;72.65
78444;BME280;67739;52.986;8.894;2023-04-19T03:06:24;103115.94;;;3.59;72.70
78444;BME280;67739;52.986;8.894;2023-04-19T03:12:11;103112.31;;;3.54;72.29
78444;BME280;67739;52.986;8.894;2023-04-19T03:14:51;103117.63;;;3.54;72.31
78444;BME280;67739;52.986;8.894;2023-04-19T03:17:30;103114.03;;;3.52;72.31
78444;BME280;67739;52.986;8.894;2023-04-19T03:20:02;103121.19;;;3.56;72.34
78444;BME280;67739;52.986;8.894;2023-04-19T03:22:35;103117.66;;;3.55;72.34
78444;BME280;67739;52.986;8.894;2023-04-19T03:25:01;103127.47;;;3.60;72.21
78444;BME280;67739;52.986;8.894;2023-04-19T03:27:42;103104.28;;;3.51;72.17
78444;BME280;67739;52.986;8.894;2023-04-19T03:30:12;103106.19;;;3.58;71.73
78444;BME280;67739;52.986;8.894;2023-04-19T03:32:56;103106.06;;;3.52;71.67
78444;BME280;67739;52.986;8.894;2023-04-19T03:35:28;103110.47;;;3.51;71.53
78444;BME280;67739;52.986;8.894;2023-04-19T03:38:01;103104.16;;;3.43;71.80
78444;BME280;67739;52.986;8.894;2023-04-19T03:40:26;103099.66;;;3.39;71.70
78444;BME280;67739;52.986;8.894;2023-04-19T03:43:17;103122.75;;;3.45;71.64
78444;BME280;67739;52.986;8.894;2023-04-19T03:45:45;103105.72;;;3.34;71.71
78444;BME280;67739;52.986;8.894;2023-04-19T03:48:10;103110.16;;;3.32;71.92
78444;BME280;67739;52.986;8.894;2023-04-19T03:50:38;103097.66;;;3.26;71.95
78444;BME280;67739;52.986;8.894;2023-04-19T03:53:03;103113.53;;;3.25;72.20
78444;BME280;67739;52.986;8.894;2023-04-19T03:56:05;103105.63;;;3.28;72.01
78444;BME280;67739;52.986;8.894;2023-04-19T03:58:43;103112.63;;;3.24;71.99
78444;BME280;67739;52.986;8.894;2023-04-19T04:01:57;103102.00;;;3.23;71.92
78444;BME280;67739;52.986;8.894;2023-04-19T04:04:33;103110.75;;;3.18;72.27
78444;BME280;67739;52.986;8.894;2023-04-19T04:06:58;103104.53;;;3.16;72.19
78444;BME280;67739;52.986;8.894;2023-04-19T04:09:39;103108.06;;;3.15;71.95
78444;BME280;67739;52.986;8.894;2023-04-19T04:12:04;103108.97;;;3.16;71.77
78444;BME280;67739;52.986;8.894;2023-04-19T04:14:30;103105.28;;;3.09;71.99
78444;BME280;67739;52.986;8.894;2023-04-19T04:16:58;103105.28;;;3.09;72.20
78444;BME280;67739;52.986;8.894;2023-04-19T04:19:29;103106.09;;;3.07;72.23
78444;BME280;67739;52.986;8.894;2023-04-19T04:22:15;103113.22;;;3.09;72.03
78444;BME280;67739;52.986;8.894;2023-04-19T04:25:04;103109.69;;;3.09;72.16
78444;BME280;67739;52.986;8.894;2023-04-19T04:27:30;103107.84;;;3.06;72.14
78444;BME280;67739;52.986;8.894;2023-04-19T04:30:10;103109.59;;;3.03;72.20
78444;BME280;67739;52.986;8.894;2023-04-19T04:32:38;103099.81;;;3.00;72.16
78444;BME280;67739;52.986;8.894;2023-04-19T04:35:27;103129.03;;;3.05;72.42
78444;BME280;67739;52.986;8.894;2023-04-19T04:40:57;103103.13;;;2.90;72.83
78444;BME280;67739;52.986;8.894;2023-04-19T04:43:32;103102.22;;;2.90;72.92
78444;BME280;67739;52.986;8.894;2023-04-19T04:46:23;103120.97;;;2.99;72.90
78444;BME280;67739;52.986;8.894;2023-04-19T04:48:58;103112.00;;;2.92;72.96
78444;BME280;67739;52.986;8.894;2023-04-19T04:51:26;103119.28;;;3.04;72.78
78444;BME280;67739;52.986;8.894;2023-04-19T04:53:57;103107.75;;;3.00;72.85
78444;BME280;67739;52.986;8.894;2023-04-19T04:56:23;103103.34;;;3.01;72.88
78444;BME280;67739;52.986;8.894;2023-04-19T04:58:50;103107.84;;;3.06;72.62
78444;BME280;67739;52.986;8.894;2023-04-19T05:01:22;103123.91;;;3.12;72.46
78444;BME280;67739;52.986;8.894;2023-04-19T05:03:57;103106.06;;;3.05;72.53
78444;BME280;67739;52.986;8.894;2023-04-19T05:06:25;103116.75;;;3.08;72.71
78444;BME280;67739;52.986;8.894;2023-04-19T05:08:50;103109.63;;;3.06;72.31
78444;BME280;67739;52.986;8.894;2023-04-19T05:11:16;103109.59;;;3.04;72.76
78444;BME280;67739;52.986;8.894;2023-04-19T05:13:41;103106.94;;;3.04;72.77
78444;BME280;67739;52.986;8.894;2023-04-19T05:16:07;103107.91;;;3.08;72.44
78444;BME280;67739;52.986;8.894;2023-04-19T05:18:32;103114.16;;;3.11;72.68
78444;BME280;67739;52.986;8.894;2023-04-19T05:20:58;103122.19;;;3.14;72.73
78444;BME280;67739;52.986;8.894;2023-04-19T05:23:23;103108.00;;;3.12;72.51
78444;BME280;67739;52.986;8.894;2023-04-19T05:25:49;103119.63;;;3.20;72.45
78444;BME280;67739;52.986;8.894;2023-04-19T05:28:14;103103.63;;;3.14;72.79
78444;BME280;67739;52.986;8.894;2023-04-19T05:30:39;103111.66;;;3.20;73.01
78444;BME280;67739;52.986;8.894;2023-04-19T05:33:07;103110.81;;;3.22;72.86
78444;BME280;67739;52.986;8.894;2023-04-19T05:35:35;103122.47;;;3.30;73.12
78444;BME280;67739;52.986;8.894;2023-04-19T05:38:00;103117.19;;;3.30;73.25
78444;BME280;67739;52.986;8.894;2023-04-19T05:40:26;103109.22;;;3.30;73.36
78444;BME280;67739;52.986;8.894;2023-04-19T05:42:53;103124.47;;;3.41;72.90
78444;BME280;67739;52.986;8.894;2023-04-19T05:45:22;103100.53;;;3.38;73.01
78444;BME280;67739;52.986;8.894;2023-04-19T05:47:47;103106.78;;;3.42;73.61
78444;BME280;67739;52.986;8.894;2023-04-19T05:50:15;103117.59;;;3.52;73.48
78444;BME280;67739;52.986;8.894;2023-04-19T05:52:55;103114.06;;;3.53;73.60
78444;BME280;67739;52.986;8.894;2023-04-19T05:55:45;103113.22;;;3.56;73.64
78444;BME280;67739;52.986;8.894;2023-04-19T06:01:27;103103.75;;;3.70;74.00
78444;BME280;67739;52.986;8.894;2023-04-19T06:04:00;103107.47;;;3.81;74.25
78444;BME280;67739;52.986;8.894;2023-04-19T06:07:11;103106.63;;;3.84;74.10
78444;BME280;67739;52.986;8.894;2023-04-19T06:09:44;103110.34;;;3.95;74.22
78444;BME280;67739;52.986;8.894;2023-04-19T06:12:09;103101.50;;;3.96;74.24
78444;BME280;67739;52.986;8.894;2023-04-19T06:14:35;103110.53;;;4.07;74.58
78444;BME280;67739;52.986;8.894;2023-04-19T06:17:03;103107.06;;;4.11;74.11
78444;BME280;67739;52.986;8.894;2023-04-19T06:19:32;103109.00;;;4.23;75.13
78444;BME280;67739;52.986;8.894;2023-04-19T06:21:58;103107.44;;;4.37;74.34
78444;BME280;67739;52.986;8.894;2023-04-19T06:24:59;103114.75;;;4.53;74.21
78444;BME280;67739;52.986;8.894;2023-04-19T06:27:25;103119.41;;;4.70;73.39
78444;BME280;67739;52.986;8.894;2023-04-19T06:51:31;103099.66;;;6.17;69.99
78444;BME280;67739;52.986;8.894;2023-04-19T07:07:55;103101.88;;;7.05;66.02
78444;BME280;67739;52.986;8.894;2023-04-19T07:10:24;103099.22;;;7.23;65.65
78444;BME280;67739;52.986;8.894;2023-04-19T07:12:50;103090.38;;;7.30;65.55
78444;BME280;67739;52.986;8.894;2023-04-19T08:27:53;103009.88;;;11.90;46.03
78444;BME280;67739;52.986;8.894;2023-04-19T08:30:58;103008.03;;;11.92;44.69
78444;BME280;67739;52.986;8.894;2023-04-19T08:33:38;103006.56;;;11.73;43.65
78444;BME280;67739;52.986;8.894;2023-04-19T08:38:56;102991.81;;;11.45;44.50
78444;BME280;67739;52.986;8.894;2023-04-19T08:41:33;102988.88;;;11.60;44.41
78444;BME280;67739;52.986;8.894;2023-04-19T08:57:14;102985.97;;;12.21;42.02
78444;BME280;67739;52.986;8.894;2023-04-19T08:59:52;102995.59;;;12.31;42.55
78444;BME280;67739;52.986;8.894;2023-04-19T09:12:02;102972.81;;;12.49;42.89
78444;BME280;67739;52.986;8.894;2023-04-19T09:15:33;102957.91;;;12.33;40.42
78444;BME280;67739;52.986;8.894;2023-04-19T09:18:54;102971.94;;;12.47;42.05
78444;BME280;67739;52.986;8.894;2023-04-19T09:21:54;102965.47;;;12.56;44.40
78444;BME280;67739;52.986;8.894;2023-04-19T09:24:44;102971.94;;;12.47;39.66
78444;BME280;67739;52.986;8.894;2023-04-19T09:27:30;102959.66;;;12.35;40.32
78444;BME280;67739;52.986;8.894;2023-04-19T09:30:08;102952.28;;;12.00;41.32
78444;BME280;67739;52.986;8.894;2023-04-19T09:32:49;102958.41;;;12.09;44.07
78444;BME280;67739;52.986;8.894;2023-04-19T09:38:27;102950.72;;;12.33;42.36
78444;BME280;67739;52.986;8.894;2023-04-19T09:41:11;102937.81;;;12.49;42.19
78444;BME280;67739;52.986;8.894;2023-04-19T09:43:39;102928.78;;;12.52;41.63
78444;BME280;67739;52.986;8.894;2023-04-19T09:51:57;102916.84;;;12.63;40.85
78444;BME280;67739;52.986;8.894;2023-04-19T09:54:24;102911.44;;;12.65;39.22
78444;BME280;67739;52.986;8.894;2023-04-19T09:57:00;102901.28;;;12.76;40.09
78444;BME280;67739;52.986;8.894;2023-04-19T09:59:39;102906.31;;;12.91;39.43
78444;BME280;67739;52.986;8.894;2023-04-19T10:02:04;102902.50;;;13.00;39.65
78444;BME280;67739;52.986;8.894;2023-04-19T10:04:33;102900.88;;;12.93;39.05
78444;BME280;67739;52.986;8.894;2023-04-19T10:07:04;102895.44;;;12.96;40.29
78444;BME280;67739;52.986;8.894;2023-04-19T10:12:44;102858.84;;;13.23;35.72
78444;BME280;67739;52.986;8.894;2023-04-19T10:15:30;102877.31;;;13.38;36.23
78444;BME280;67739;52.986;8.894;2023-04-19T10:17:57;102869.47;;;13.61;34.69
78444;BME280;67739;52.986;8.894;2023-04-19T10:23:24;102867.16;;;13.80;33.53
78444;BME280;67739;52.986;8.894;2023-04-19T10:25:55;102853.66;;;13.80;33.32
78444;BME280;67739;52.986;8.894;2023-04-19T10:28:27;102856.38;;;13.78;33.67
78444;BME280;67739;52.986;8.894;2023-04-19T10:30:54;102862.59;;;13.82;34.44
78444;BME280;67739;52.986;8.894;2023-04-19T10:33:24;102848.94;;;13.87;34.80
78444;BME280;67739;52.986;8.894;2023-04-19T10:35:54;102841.75;;;13.87;34.31
78444;BME280;67739;52.986;8.894;2023-04-19T10:38:34;102833.03;;;13.77;35.45
78444;BME280;67739;52.986;8.894;2023-04-19T10:41:01;102834.53;;;13.88;35.81
78444;BME280;67739;52.986;8.894;2023-04-19T10:43:34;102835.34;;;13.91;32.67
78444;BME280;67739;52.986;8.894;2023-04-19T10:48:34;102823.81;;;14.14;34.04
78444;BME280;67739;52.986;8.894;2023-04-19T10:53:49;102823.19;;;14.35;32.59
78444;BME280;67739;52.986;8.894;2023-04-19T10:56:17;102813.25;;;14.36;32.50
78444;BME280;67739;52.986;8.894;2023-04-19T11:01:56;102818.13;;;14.54;30.91
78444;BME280;67739;52.986;8.894;2023-04-19T11:11:58;102803.63;;;14.57;34.71
78444;BME280;67739;52.986;8.894;2023-04-19T11:14:25;102796.13;;;14.65;33.73
78444;BME280;67739;52.986;8.894;2023-04-19T11:16:51;102798.56;;;14.72;32.02
78444;BME280;67739;52.986;8.894;2023-04-19T11:19:17;102790.00;;;14.86;33.16
78444;BME280;67739;52.986;8.894;2023-04-19T11:21:46;102782.13;;;14.80;31.35
78444;BME280;67739;52.986;8.894;2023-04-19T11:24:12;102785.94;;;14.73;31.59
78444;BME280;67739;52.986;8.894;2023-04-19T11:26:41;102785.81;;;14.77;32.15
78444;BME280;67739;52.986;8.894;2023-04-19T11:29:08;102781.78;;;14.63;30.85
78444;BME280;67739;52.986;8.894;2023-04-19T11:31:34;102756.88;;;14.55;28.42
78444;BME280;67739;52.986;8.894;2023-04-19T11:33:59;102767.50;;;14.59;30.17
78444;BME280;67739;52.986;8.894;2023-04-19T11:36:25;102776.53;;;14.58;31.28
78444;BME280;67739;52.986;8.894;2023-04-19T11:38:51;102764.66;;;14.64;31.48
78444;BME280;67739;52.986;8.894;2023-04-19T11:41:17;102764.56;;;14.67;30.92
78444;BME280;67739;52.986;8.894;2023-04-19T11:43:42;102766.63;;;14.59;31.77
78444;BME280;67739;52.986;8.894;2023-04-19T11:46:11;102761.53;;;14.49;30.02
78444;BME280;67739;52.986;8.894;2023-04-19T11:48:37;102744.50;;;14.47;29.64
78444;BME280;67739;52.986;8.894;2023-04-19T11:51:03;102752.34;;;14.27;31.79
78444;BME280;67739;52.986;8.894;2023-04-19T11:53:30;102752.03;;;14.36;29.40
78444;BME280;67739;52.986;8.894;2023-04-19T11:56:03;102751.88;;;14.42;29.05
78444;BME280;67739;52.986;8.894;2023-04-19T11:58:37;102741.78;;;14.47;29.85
78444;BME280;67739;52.986;8.894;2023-04-19T12:03:30;102744.50;;;14.47;31.10
78444;BME280;67739;52.986;8.894;2023-04-19T12:05:57;102736.16;;;14.55;30.09
78444;BME280;67739;52.986;8.894;2023-04-19T12:08:33;102723.13;;;14.41;31.31
78444;BME280;67739;52.986;8.894;2023-04-19T12:11:00;102724.53;;;14.25;30.28
78444;BME280;67739;52.986;8.894;2023-04-19T12:13:27;102723.59;;;14.26;31.66
78444;BME280;67739;52.986;8.894;2023-04-19T12:15:53;102728.09;;;14.26;30.56
78444;BME280;67739;52.986;8.894;2023-04-19T12:18:18;102721.34;;;14.40;32.11
78444;BME280;67739;52.986;8.894;2023-04-19T12:20:45;102722.88;;;14.47;30.36
78444;BME280;67739;52.986;8.894;2023-04-19T12:23:12;102725.63;;;14.46;28.53
78444;BME280;67739;52.986;8.894;2023-04-19T12:25:38;102716.47;;;14.52;28.98
78444;BME280;67739;52.986;8.894;2023-04-19T12:28:04;102724.47;;;14.55;29.41
78444;BME280;67739;52.986;8.894;2023-04-19T12:30:30;102728.94;;;14.56;28.07
78444;BME280;67739;52.986;8.894;2023-04-19T12:32:57;102716.31;;;14.56;29.10
78444;BME280;67739;52.986;8.894;2023-04-19T12:35:26;102712.09;;;14.47;28.76
78444;BME280;67739;52.986;8.894;2023-04-19T12:37:53;102719.31;;;14.47;27.46
78444;BME280;67739;52.986;8.894;2023-04-19T12:40:18;102701.38;;;14.16;27.10
78444;BME280;67739;52.986;8.894;2023-04-19T12:42:44;102710.41;;;14.15;26.23
78444;BME280;67739;52.986;8.894;2023-04-19T12:45:10;102711.34;;;14.14;26.47
78444;BME280;67739;52.986;8.894;2023-04-19T12:47:36;102704.09;;;14.16;27.75
78444;BME280;67739;52.986;8.894;2023-04-19T12:50:01;102720.16;;;14.21;28.91
78444;BME280;67739;52.986;8.894;2023-04-19T12:52:27;102707.34;;;14.28;28.25
78444;BME280;67739;52.986;8.894;2023-04-19T12:54:52;102715.06;;;14.38;28.13
78444;BME280;67739;52.986;8.894;2023-04-19T12:57:17;102694.34;;;14.40;27.97
78444;BME280;67739;52.986;8.894;2023-04-19T12:59:43;102694.34;;;14.39;27.13
78444;BME280;67739;52.986;8.894;2023-04-19T13:02:08;102696.22;;;14.37;26.82
78444;BME280;67739;52.986;8.894;2023-04-19T13:04:34;102696.03;;;14.43;28.01
78444;BME280;67739;52.986;8.894;2023-04-19T13:07:00;102683.31;;;14.46;27.45
78444;BME280;67739;52.986;8.894;2023-04-19T13:09:26;102683.41;;;14.43;26.95
78444;BME280;67739;52.986;8.894;2023-04-19T13:11:53;102694.41;;;14.37;28.28
78444;BME280;67739;52.986;8.894;2023-04-19T13:14:18;102680.84;;;14.40;27.26
78444;BME280;67739;52.986;8.894;2023-04-19T13:16:44;102673.44;;;14.45;27.77
78444;BME280;67739;52.986;8.894;2023-04-19T13:19:09;102675.44;;;14.39;26.67
78444;BME280;67739;52.986;8.894;2023-04-19T13:21:35;102679.97;;;14.38;27.02
78444;BME280;67739;52.986;8.894;2023-04-19T13:24:00;102670.25;;;14.33;27.52
78444;BME280;67739;52.986;8.894;2023-04-19T13:26:25;102668.53;;;14.30;28.41
78444;BME280;67739;52.986;8.894;2023-04-19T13:28:51;102662.19;;;14.31;28.91
78444;BME280;67739;52.986;8.894;2023-04-19T13:31:17;102651.16;;;14.39;27.55
78444;BME280;67739;52.986;8.894;2023-04-19T13:33:42;102639.16;;;14.47;27.58
78444;BME280;67739;52.986;8.894;2023-04-19T13:36:07;102659.31;;;14.37;27.80
78444;BME280;67739;52.986;8.894;2023-04-19T13:38:33;102653.41;;;14.26;28.39
78444;BME280;67739;52.986;8.894;2023-04-19T13:40:58;102652.84;;;14.15;28.50
78444;BME280;67739;52.986;8.894;2023-04-19T13:43:24;102655.81;;;14.07;25.65
78444;BME280;67739;52.986;8.894;2023-04-19T13:45:50;102637.66;;;14.12;27.27
78444;BME280;67739;52.986;8.894;2023-04-19T13:48:15;102650.00;;;14.20;27.55
78444;BME280;67739;52.986;8.894;2023-04-19T13:50:40;102653.50;;;14.23;29.86
78444;BME280;67739;52.986;8.894;2023-04-19T13:53:06;102653.50;;;14.23;29.02
78444;BME280;67739;52.986;8.894;2023-04-19T13:55:31;102652.75;;;14.18;29.10
78444;BME280;67739;52.986;8.894;2023-04-19T13:57:57;102642.97;;;14.14;28.97
78444;BME280;67739;52.986;8.894;2023-04-19T14:00:22;102647.78;;;14.06;28.02
78444;BME280;67739;52.986;8.894;2023-04-19T14:02:48;102641.75;;;13.98;30.06
78444;BME280;67739;52.986;8.894;2023-04-19T14:05:13;102640.00;;;13.97;29.67
78444;BME280;67739;52.986;8.894;2023-04-19T14:07:39;102644.50;;;13.96;29.53
78444;BME280;67739;52.986;8.894;2023-04-19T14:10:05;102640.97;;;13.94;27.81
78444;BME280;67739;52.986;8.894;2023-04-19T14:12:31;102633.84;;;13.92;28.22
78444;BME280;67739;52.986;8.894;2023-04-19T14:14:57;102626.53;;;13.95;27.78
78444;BME280;67739;52.986;8.894;2023-04-19T14:17:22;102630.91;;;13.99;28.59
78444;BME280;67739;52.986;8.894;2023-04-19T14:19:48;102635.25;;;14.03;28.59
78444;BME280;67739;52.986;8.894;2023-04-19T14:22:15;102622.06;;;13.94;27.84
78444;BME280;67739;52.986;8.894;2023-04-19T14:24:40;102628.63;;;13.86;27.50
78444;BME280;67739;52.986;8.894;2023-04-19T14:27:05;102624.69;;;13.69;28.08
78444;BME280;67739;52.986;8.894;2023-04-19T14:29:31;102628.31;;;13.68;28.16
78444;BME280;67739;52.986;8.894;2023-04-19T14:31:56;102633.72;;;13.68;29.29
78444;BME280;67739;52.986;8.894;2023-04-19T14:34:23;102627.28;;;13.72;27.54
78444;BME280;67739;52.986;8.894;2023-04-19T14:36:49;102624.69;;;13.69;28.31
78444;BME280;67739;52.986;8.894;2023-04-19T14:39:14;102622.94;;;13.68;29.60
78444;BME280;67739;52.986;8.894;2023-04-19T14:41:40;102613.22;;;13.63;27.93
78444;BME280;67739;52.986;8.894;2023-04-19T14:44:05;102618.19;;;13.47;27.71
78444;BME280;67739;52.986;8.894;2023-04-19T14:46:31;102613.94;;;13.40;28.25
78444;BME280;67739;52.986;8.894;2023-04-19T14:48:56;102606.03;;;13.34;29.08
78444;BME280;67739;52.986;8.894;2023-04-19T14:51:28;102607.63;;;13.41;30.10
78444;BME280;67739;52.986;8.894;2023-04-19T14:53:53;102613.75;;;13.46;28.72
78444;BME280;67739;52.986;8.894;2023-04-19T14:56:18;102612.72;;;13.50;30.26
78444;BME280;67739;52.986;8.894;2023-04-19T14:58:44;102606.75;;;13.40;29.56
78444;BME280;67739;52.986;8.894;2023-04-19T15:01:13;102604.22;;;13.34;29.98
78444;BME280;67739;52.986;8.894;2023-04-19T15:03:38;102588.34;;;13.25;28.95
78444;BME280;67739;52.986;8.894;2023-04-19T15:06:04;102599.50;;;13.12;29.70
78444;BME280;67739;52.986;8.894;2023-04-19T15:08:30;102593.25;;;13.11;29.83
78444;BME280;67739;52.986;8.894;2023-04-19T15:10:55;102596.75;;;13.13;29.31
78444;BME280;67739;52.986;8.894;2023-04-19T15:13:20;102595.88;;;13.13;31.01
78444;BME280;67739;52.986;8.894;2023-04-19T15:15:46;102589.63;;;13.12;29.70
78444;BME280;67739;52.986;8.894;2023-04-19T15:18:11;102586.94;;;13.12;29.66
78444;BME280;67739;52.986;8.894;2023-04-19T15:20:36;102587.81;;;13.13;29.16
78444;BME280;67739;52.986;8.894;2023-04-19T15:23:02;102584.22;;;13.12;28.54
78444;BME280;67739;52.986;8.894;2023-04-19T15:25:27;102592.34;;;13.10;30.25
78444;BME280;67739;52.986;8.894;2023-04-19T15:27:53;102574.50;;;13.06;28.98
78444;BME280;67739;52.986;8.894;2023-04-19T15:30:18;102578.38;;;12.98;28.63
78444;BME280;67739;52.986;8.894;2023-04-19T15:32:43;102590.84;;;13.00;30.07
78444;BME280;67739;52.986;8.894;2023-04-19T15:35:09;102597.28;;;12.96;29.04
78444;BME280;67739;52.986;8.894;2023-04-19T15:37:34;102582.41;;;12.83;28.99
78444;BME280;67739;52.986;8.894;2023-04-19T15:40:00;102596.06;;;12.75;29.62
78444;BME280;67739;52.986;8.894;2023-04-19T15:42:25;102591.03;;;12.63;29.56
78444;BME280;67739;52.986;8.894;2023-04-19T15:44:50;102592.72;;;12.67;31.72
78444;BME280;67739;52.986;8.894;2023-04-19T15:47:16;102593.59;;;12.68;29.64
78444;BME280;67739;52.986;8.894;2023-04-19T15:49:41;102598.09;;;12.67;29.74
78444;BME280;67739;52.986;8.894;2023-04-19T15:52:07;102601.69;;;12.68;30.62
78444;BME280;67739;52.986;8.894;2023-04-19T15:54:33;102609.84;;;12.65;29.87
78444;BME280;67739;52.986;8.894;2023-04-19T15:56:58;102600.19;;;12.56;30.52
78444;BME280;67739;52.986;8.894;2023-04-19T15:59:24;102603.88;;;12.54;30.22
78444;BME280;67739;52.986;8.894;2023-04-19T16:01:49;102592.34;;;12.49;29.49
78444;BME280;67739;52.986;8.894;2023-04-19T16:04:15;102610.56;;;12.39;28.49
78444;BME280;67739;52.986;8.894;2023-04-19T16:06:40;102597.28;;;12.31;30.56
78444;BME280;67739;52.986;8.894;2023-04-19T16:09:05;102605.53;;;12.25;30.16
78444;BME280;67739;52.986;8.894;2023-04-19T16:11:32;102601.31;;;12.15;29.79
78444;BME280;67739;52.986;8.894;2023-04-19T16:13:57;102607.81;;;12.07;29.94
78444;BME280;67739;52.986;8.894;2023-04-19T16:16:23;102612.28;;;12.08;31.10
78444;BME280;67739;52.986;8.894;2023-04-19T16:18:50;102605.09;;;12.08;30.50
78444;BME280;67739;52.986;8.894;2023-04-19T16:21:16;102597.09;;;12.05;29.89
78444;BME280;67739;52.986;8.894;2023-04-19T16:23:41;102608.81;;;12.02;30.91
78444;BME280;67739;52.986;8.894;2023-04-19T16:26:06;102601.72;;;11.98;29.86
78444;BME280;67739;52.986;8.894;2023-04-19T16:28:32;102604.69;;;11.88;31.02
78444;BME280;67739;52.986;8.894;2023-04-19T16:30:57;102606.66;;;11.81;30.53
78444;BME280;67739;52.986;8.894;2023-04-19T16:33:23;102611.28;;;11.73;30.29
78444;BME280;67739;52.986;8.894;2023-04-19T16:35:48;102614.16;;;11.67;30.38
78444;BME280;67739;52.986;8.894;2023-04-19T16:38:13;102621.22;;;11.69;31.74
78444;BME280;67739;52.986;8.894;2023-04-19T16:40:39;102614.91;;;11.72;31.73
78444;BME280;67739;52.986;8.894;2023-04-19T16:43:04;102613.91;;;11.78;31.93
78444;BME280;67739;52.986;8.894;2023-04-19T16:45:30;102613.88;;;11.79;31.07
78444;BME280;67739;52.986;8.894;2023-04-19T16:47:56;102620.28;;;11.72;30.96
78444;BME280;67739;52.986;8.894;2023-04-19T16:50:21;102611.50;;;11.65;30.97
78444;BME280;67739;52.986;8.894;2023-04-19T16:52:47;102608.94;;;11.59;31.01
78444;BME280;67739;52.986;8.894;2023-04-19T16:55:13;102606.44;;;11.52;30.81
78444;BME280;67739;52.986;8.894;2023-04-19T16:57:38;102602.16;;;11.43;30.91
78444;BME280;67739;52.986;8.894;2023-04-19T17:00:05;102606.78;;;11.37;30.10
78444;BME280;67739;52.986;8.894;2023-04-19T17:02:31;102617.69;;;11.29;30.71
78444;BME280;67739;52.986;8.894;2023-04-19T17:04:57;102610.69;;;11.22;30.64
78444;BME280;67739;52.986;8.894;2023-04-19T17:07:22;102603.69;;;11.15;30.61
78444;BME280;67739;52.986;8.894;2023-04-19T17:09:48;102596.69;;;11.08;30.77
78444;BME280;67739;52.986;8.894;2023-04-19T17:12:13;102600.44;;;10.99;30.66
78444;BME280;67739;52.986;8.894;2023-04-19T17:14:38;102609.41;;;10.98;31.64
78444;BME280;67739;52.986;8.894;2023-04-19T17:17:04;102597.97;;;10.88;29.42
78444;BME280;67739;52.986;8.894;2023-04-19T17:19:30;102601.72;;;10.81;29.44
78444;BME280;67739;52.986;8.894;2023-04-19T17:21:55;102617.91;;;10.77;29.86
78444;BME280;67739;52.986;8.894;2023-04-19T17:24:22;102611.75;;;10.72;29.25
78444;BME280;67739;52.986;8.894;2023-04-19T17:26:48;102611.00;;;10.65;28.45
78444;BME280;67739;52.986;8.894;2023-04-19T17:29:14;102605.78;;;10.56;28.07
78444;BME280;67739;52.986;8.894;2023-04-19T17:31:39;102600.53;;;10.51;28.40
78444;BME280;67739;52.986;8.894;2023-04-19T17:34:04;102610.44;;;10.46;29.06
78444;BME280;67739;52.986;8.894;2023-04-19T17:36:30;102608.84;;;10.38;28.85
78444;BME280;67739;52.986;8.894;2023-04-19T17:38:56;102611.63;;;10.32;28.39
78444;BME280;67739;52.986;8.894;2023-04-19T17:41:21;102608.25;;;10.20;29.83
78444;BME280;67739;52.986;8.894;2023-04-19T17:43:46;102600.31;;;10.11;28.16
78444;BME280;67739;52.986;8.894;2023-04-19T17:46:12;102603.97;;;10.07;29.33
78444;BME280;67739;52.986;8.894;2023-04-19T17:48:39;102608.47;;;10.05;29.01
78444;BME280;67739;52.986;8.894;2023-04-19T17:51:05;102612.97;;;10.03;30.27